createdAt,value
2022-09-01T00:00:18.837Z,100795.00
2022-09-01T00:02:50.356Z,100799.50
2022-09-01T00:05:20.060Z,100798.66
2022-09-01T00:07:52.773Z,100790.75
2022-09-01T00:10:22.774Z,100793.41
2022-09-01T00:12:52.634Z,100796.94
2022-09-01T00:15:22.305Z,100797.63
2022-09-01T00:17:52.054Z,100803.50
2022-09-01T00:20:21.757Z,100800.66
2022-09-01T00:22:54.001Z,100802.19
2022-09-01T00:25:24.832Z,100799.31
2022-09-01T00:27:54.569Z,100799.00
2022-09-01T00:30:25.238Z,100801.41
2022-09-01T00:32:55.001Z,100803.81
2022-09-01T00:35:24.896Z,100797.41
2022-09-01T00:37:57.109Z,100793.78
2022-09-01T00:40:27.278Z,100790.88
2022-09-01T00:42:57.004Z,100795.09
2022-09-01T00:45:26.715Z,100790.47
2022-09-01T00:47:56.854Z,100788.47
2022-09-01T00:50:27.068Z,100782.16
2022-09-01T00:52:59.258Z,100786.56
2022-09-01T00:55:32.563Z,100786.47
2022-09-01T00:58:03.443Z,100785.59
2022-09-01T01:00:34.604Z,100783.91
2022-09-01T01:03:04.259Z,100791.03
2022-09-01T01:05:36.590Z,100789.31
2022-09-01T01:08:12.053Z,100780.53
2022-09-01T01:10:44.323Z,100780.75
2022-09-01T01:13:17.138Z,100777.19
2022-09-01T01:15:47.330Z,100780.84
2022-09-01T01:18:23.155Z,100774.63
2022-09-01T01:21:15.294Z,100777.03
2022-09-01T01:23:48.844Z,100780.22
2022-09-01T01:26:21.132Z,100779.06
2022-09-01T01:28:54.413Z,100783.19
2022-09-01T01:31:25.709Z,100788.22
2022-09-01T01:33:59.252Z,100785.34
2022-09-01T01:36:36.460Z,100787.75
2022-09-01T01:39:11.136Z,100789.31
2022-09-01T01:41:48.768Z,100789.16
2022-09-01T01:44:21.151Z,100788.94
2022-09-01T01:46:53.144Z,100793.13
2022-09-01T01:49:25.555Z,100795.69
2022-09-01T01:51:58.119Z,100798.25
2022-09-01T01:54:34.052Z,100798.38
2022-09-01T01:57:08.148Z,100804.69
2022-09-01T01:59:38.766Z,100798.59
2022-09-01T02:02:12.928Z,100803.16
2022-09-01T02:04:43.536Z,100805.09
2022-09-01T02:07:14.922Z,100797.19
2022-09-01T02:09:48.191Z,100805.00
2022-09-01T02:12:25.270Z,100803.16
2022-09-01T02:14:55.474Z,100802.31
2022-09-01T02:17:27.231Z,100806.84
2022-09-01T02:19:58.363Z,100803.28
2022-09-01T02:22:28.547Z,100807.00
2022-09-01T02:24:58.480Z,100800.13
2022-09-01T02:27:33.995Z,100801.31
2022-09-01T02:30:04.064Z,100799.03
2022-09-01T02:32:34.443Z,100795.81
2022-09-01T02:35:07.324Z,100800.69
2022-09-01T02:37:36.936Z,100798.34
2022-09-01T02:40:07.328Z,100793.25
2022-09-01T02:42:43.420Z,100805.13
2022-09-01T02:45:16.322Z,100796.44
2022-09-01T02:47:48.565Z,100802.97
2022-09-01T02:50:19.855Z,100797.59
2022-09-01T02:52:52.270Z,100795.94
2022-09-01T02:55:23.728Z,100797.00
2022-09-01T02:57:58.345Z,100791.09
2022-09-01T03:00:33.120Z,100793.97
2022-09-01T03:03:04.493Z,100800.47
2022-09-01T03:05:36.179Z,100790.81
2022-09-01T03:08:10.417Z,100790.13
2022-09-01T03:10:42.929Z,100790.34
2022-09-01T03:13:17.793Z,100791.50
2022-09-01T03:15:47.759Z,100790.91
2022-09-01T03:18:18.640Z,100795.63
2022-09-01T03:20:53.054Z,100789.59
2022-09-01T03:23:25.352Z,100795.13
2022-09-01T03:25:55.333Z,100798.94
2022-09-01T03:28:27.612Z,100800.00
2022-09-01T03:30:59.511Z,100799.31
2022-09-01T03:33:30.415Z,100800.47
2022-09-01T03:36:00.746Z,100796.47
2022-09-01T03:38:33.539Z,100810.28
2022-09-01T03:41:07.469Z,100801.03
2022-09-01T03:43:46.983Z,100796.31
2022-09-01T03:46:21.925Z,100797.81
2022-09-01T03:48:55.058Z,100805.47
2022-09-01T03:51:25.875Z,100795.28
2022-09-01T03:53:57.565Z,100803.72
2022-09-01T03:56:29.760Z,100795.13
2022-09-01T03:59:03.265Z,100792.53
2022-09-01T04:01:34.915Z,100793.38
2022-09-01T04:04:06.742Z,100791.78
2022-09-01T04:06:37.018Z,100792.03
2022-09-01T04:09:06.828Z,100797.66
2022-09-01T04:11:42.506Z,100792.56
2022-09-01T04:14:19.037Z,100795.50
2022-09-01T04:17:06.460Z,100791.38
2022-09-01T04:19:39.725Z,100795.19
2022-09-01T04:22:13.533Z,100795.38
2022-09-01T04:24:46.095Z,100791.91
2022-09-01T04:27:18.203Z,100791.06
2022-09-01T04:29:54.759Z,100790.03
2022-09-01T04:32:27.517Z,100790.78
2022-09-01T04:34:58.523Z,100787.28
2022-09-01T04:37:29.105Z,100787.28
2022-09-01T04:40:02.119Z,100793.44
2022-09-01T04:42:34.210Z,100789.06
2022-09-01T04:45:11.390Z,100798.97
2022-09-01T04:47:46.794Z,100790.97
2022-09-01T04:50:22.133Z,100796.13
2022-09-01T04:53:12.173Z,100790.59
2022-09-01T04:55:46.241Z,100796.53
2022-09-01T04:58:20.701Z,100791.72
2022-09-01T05:00:56.052Z,100797.75
2022-09-01T05:03:26.681Z,100797.56
2022-09-01T05:06:03.926Z,100798.41
2022-09-01T05:08:35.452Z,100786.88
2022-09-01T05:11:09.425Z,100794.00
2022-09-01T05:13:42.497Z,100797.56
2022-09-01T05:16:16.572Z,100795.00
2022-09-01T05:18:50.723Z,100795.06
2022-09-01T05:21:24.636Z,100801.34
2022-09-01T05:23:54.428Z,100796.03
2022-09-01T05:26:27.826Z,100797.81
2022-09-01T05:28:59.240Z,100804.78
2022-09-01T05:31:39.017Z,100797.47
2022-09-01T05:34:09.965Z,100796.44
2022-09-01T05:36:41.989Z,100795.41
2022-09-01T05:39:12.500Z,100804.16
2022-09-01T05:41:42.209Z,100808.56
2022-09-01T05:44:13.780Z,100804.84
2022-09-01T05:46:46.821Z,100803.03
2022-09-01T05:49:18.653Z,100813.72
2022-09-01T05:51:53.206Z,100808.47
2022-09-01T05:54:27.415Z,100809.50
2022-09-01T05:57:12.649Z,100809.50
2022-09-01T05:59:53.861Z,100813.91
2022-09-01T06:02:29.438Z,100807.53
2022-09-01T06:05:00.697Z,100813.56
2022-09-01T06:07:41.042Z,100809.75
2022-09-01T06:10:13.007Z,100812.06
2022-09-01T06:12:43.217Z,100801.09
2022-09-01T06:15:16.226Z,100807.97
2022-09-01T06:17:52.795Z,100810.41
2022-09-01T06:20:23.067Z,100808.25
2022-09-01T06:22:53.058Z,100808.72
2022-09-01T06:25:24.113Z,100803.69
2022-09-01T06:27:54.188Z,100798.53
2022-09-01T06:30:26.492Z,100798.72
2022-09-01T06:33:09.475Z,100806.56
2022-09-01T06:35:42.104Z,100801.03
2022-09-01T06:38:12.346Z,100800.72
2022-09-01T06:40:45.437Z,100799.28
2022-09-01T06:43:17.362Z,100808.94
2022-09-01T06:45:54.479Z,100799.94
2022-09-01T06:48:30.885Z,100802.72
2022-09-01T06:51:19.871Z,100806.19
2022-09-01T06:53:53.195Z,100805.09
2022-09-01T06:56:24.225Z,100798.03
2022-09-01T06:58:55.886Z,100799.03
2022-09-01T07:01:27.777Z,100800.03
2022-09-01T07:04:00.905Z,100795.72
2022-09-01T07:06:59.354Z,100794.72
2022-09-01T07:10:05.778Z,100796.66
2022-09-01T07:18:28.746Z,100813.41
2022-09-01T07:21:07.636Z,100809.03
2022-09-01T07:24:10.781Z,100801.97
2022-09-01T07:26:47.161Z,100805.69
2022-09-01T07:29:21.803Z,100810.38
2022-09-01T07:34:47.671Z,100807.91
2022-09-01T07:43:46.467Z,100798.94
2022-09-01T07:47:19.555Z,100799.59
2022-09-01T07:50:11.375Z,100797.00
2022-09-01T07:52:31.534Z,100797.06
2022-09-01T07:55:01.854Z,100798.06
2022-09-01T07:57:32.062Z,100807.81
2022-09-01T08:00:01.868Z,100805.28
2022-09-01T08:02:43.985Z,100807.38
2022-09-01T08:05:21.132Z,100802.72
2022-09-01T08:07:53.463Z,100807.28
2022-09-01T08:10:26.656Z,100807.09
2022-09-01T08:12:57.266Z,100807.63
2022-09-01T08:16:06.768Z,100807.59
2022-09-01T08:18:17.642Z,100807.19
2022-09-01T08:20:48.313Z,100801.97
2022-09-01T08:23:40.991Z,100806.22
2022-09-01T08:26:14.599Z,100801.09
2022-09-01T08:28:46.298Z,100801.06
2022-09-01T08:31:18.001Z,100805.97
2022-09-01T08:33:50.090Z,100797.34
2022-09-01T08:36:24.920Z,100800.00
2022-09-01T08:38:58.197Z,100806.09
2022-09-01T08:41:38.225Z,100805.09
2022-09-01T08:44:16.773Z,100805.34
2022-09-01T08:46:47.103Z,100806.63
2022-09-01T08:49:25.667Z,100801.41
2022-09-01T08:52:27.206Z,100792.44
2022-09-01T08:55:05.584Z,100792.19
2022-09-01T08:57:38.009Z,100796.03
2022-09-01T09:00:33.384Z,100798.72
2022-09-01T09:03:17.068Z,100793.72
2022-09-01T09:05:58.093Z,100785.41
2022-09-01T09:08:51.363Z,100780.03
2022-09-01T09:11:40.880Z,100784.25
2022-09-01T09:14:14.657Z,100789.09
2022-09-01T09:16:47.020Z,100783.31
2022-09-01T09:19:26.139Z,100784.41
2022-09-01T09:21:57.949Z,100785.53
2022-09-01T09:24:47.228Z,100775.78
2022-09-01T09:27:23.580Z,100778.84
2022-09-01T09:29:54.588Z,100777.84
2022-09-01T09:32:39.497Z,100779.47
2022-09-01T09:35:25.084Z,100777.97
2022-09-01T09:37:56.135Z,100765.44
2022-09-01T09:40:27.924Z,100764.50
2022-09-01T09:43:09.371Z,100762.88
2022-09-01T09:45:42.186Z,100767.03
2022-09-01T09:48:13.690Z,100767.41
2022-09-01T09:50:44.691Z,100766.41
2022-09-01T09:53:19.204Z,100749.16
2022-09-01T09:55:58.428Z,100749.22
2022-09-01T09:58:34.713Z,100744.16
2022-09-01T10:01:17.514Z,100745.31
2022-09-01T10:03:50.463Z,100744.13
2022-09-01T10:06:34.901Z,100739.91
2022-09-01T10:09:06.674Z,100749.72
2022-09-01T10:11:41.252Z,100733.56
2022-09-01T10:14:51.784Z,100738.34
2022-09-01T10:17:13.380Z,100737.94
2022-09-01T10:19:52.074Z,100737.91
2022-09-01T10:22:22.058Z,100732.31
2022-09-01T10:24:51.801Z,100731.84
2022-09-01T10:27:25.112Z,100734.22
2022-09-01T10:30:18.781Z,100727.59
2022-09-01T10:32:55.626Z,100737.28
2022-09-01T10:35:28.236Z,100742.41
2022-09-01T10:37:59.457Z,100729.44
2022-09-01T10:40:43.517Z,100725.41
2022-09-01T10:43:37.925Z,100722.16
2022-09-01T10:46:51.375Z,100714.63
2022-09-01T10:49:53.076Z,100719.97
2022-09-01T10:52:53.749Z,100715.81
2022-09-01T10:55:25.597Z,100721.78
2022-09-01T10:59:29.779Z,100714.84
2022-09-01T11:01:13.404Z,100717.72
2022-09-01T11:04:05.841Z,100716.41
2022-09-01T11:07:17.204Z,100713.53
2022-09-01T11:10:31.655Z,100708.06
2022-09-01T11:13:25.690Z,100701.06
2022-09-01T11:15:58.588Z,100697.59
2022-09-01T11:18:32.539Z,100706.19
2022-09-01T11:21:22.315Z,100704.22
2022-09-01T11:23:52.761Z,100702.19
2022-09-01T11:26:50.109Z,100708.31
2022-09-01T11:29:49.773Z,100701.34
2022-09-01T11:32:22.298Z,100696.59
2022-09-01T11:34:52.686Z,100708.34
2022-09-01T11:37:27.939Z,100709.22
2022-09-01T11:39:59.136Z,100697.50
2022-09-01T11:42:31.740Z,100700.47
2022-09-01T11:45:04.650Z,100700.75
2022-09-01T11:47:39.633Z,100693.44
2022-09-01T11:50:11.538Z,100697.25
2022-09-01T11:52:44.104Z,100693.34
2022-09-01T11:55:13.928Z,100698.25
2022-09-01T11:57:43.987Z,100692.47
2022-09-01T12:00:15.993Z,100684.06
2022-09-01T12:02:48.741Z,100677.69
2022-09-01T12:05:30.938Z,100680.78
2022-09-01T12:08:05.210Z,100685.25
2022-09-01T12:10:37.707Z,100679.47
2022-09-01T12:13:10.334Z,100669.28
2022-09-01T12:16:00.438Z,100672.28
2022-09-01T12:18:35.116Z,100666.81
2022-09-01T12:21:09.565Z,100657.22
2022-09-01T12:23:45.309Z,100658.53
2022-09-01T12:26:17.269Z,100656.31
2022-09-01T12:28:48.966Z,100655.25
2022-09-01T12:31:21.268Z,100648.03
2022-09-01T12:33:51.287Z,100652.84
2022-09-01T12:36:26.803Z,100644.72
2022-09-01T12:39:00.615Z,100648.81
2022-09-01T12:41:39.062Z,100652.91
2022-09-01T12:44:31.325Z,100658.16
2022-09-01T12:47:02.722Z,100646.97
2022-09-01T12:49:45.192Z,100652.81
2022-09-01T12:52:28.597Z,100651.72
2022-09-01T12:55:47.266Z,100650.81
2022-09-01T12:58:05.652Z,100648.56
2022-09-01T13:00:37.676Z,100645.38
2022-09-01T13:03:14.417Z,100642.63
2022-09-01T13:05:45.093Z,100637.66
2022-09-01T13:08:16.125Z,100623.38
2022-09-01T13:10:51.695Z,100621.25
2022-09-01T13:13:21.652Z,100614.84
2022-09-01T13:15:53.126Z,100618.25
2022-09-01T13:18:24.087Z,100620.34
2022-09-01T13:20:55.987Z,100622.16
2022-09-01T13:23:26.479Z,100619.38
2022-09-01T13:25:59.024Z,100614.03
2022-09-01T13:28:29.606Z,100607.88
2022-09-01T13:36:43.784Z,100608.63
2022-09-01T13:39:15.742Z,100602.56
2022-09-01T13:41:48.550Z,100590.03
2022-09-01T13:44:18.849Z,100583.97
2022-09-01T13:49:43.726Z,100583.28
2022-09-01T13:52:14.449Z,100589.25
2022-09-01T13:54:44.546Z,100587.00
2022-09-01T13:57:17.925Z,100594.31
2022-09-01T13:59:47.792Z,100587.66
2022-09-01T14:02:17.456Z,100581.31
2022-09-01T14:04:48.761Z,100584.00
2022-09-01T14:07:19.001Z,100583.44
2022-09-01T14:09:48.760Z,100581.34
2022-09-01T14:12:20.974Z,100583.03
2022-09-01T14:17:41.578Z,100577.50
2022-09-01T14:20:14.317Z,100580.81
2022-09-01T14:22:44.405Z,100574.88
2022-09-01T14:25:14.297Z,100572.03
2022-09-01T14:27:47.745Z,100571.09
2022-09-01T14:30:18.412Z,100568.63
2022-09-01T14:32:48.238Z,100570.03
2022-09-01T14:35:18.892Z,100567.69
2022-09-01T14:37:48.790Z,100558.56
2022-09-01T14:40:20.308Z,100566.22
2022-09-01T14:42:54.116Z,100567.13
2022-09-01T14:45:25.618Z,100564.41
2022-09-01T14:47:58.639Z,100564.03
2022-09-01T14:50:32.541Z,100561.16
2022-09-01T14:53:03.395Z,100556.44
2022-09-01T14:55:33.530Z,100549.31
2022-09-01T14:58:06.429Z,100553.72
2022-09-01T15:00:37.481Z,100561.88
2022-09-01T15:03:07.132Z,100550.00
2022-09-01T15:05:39.999Z,100547.63
2022-09-01T15:08:15.538Z,100552.38
2022-09-01T15:10:47.227Z,100552.38
2022-09-01T15:13:19.541Z,100554.56
2022-09-01T15:15:49.538Z,100545.41
2022-09-01T15:18:19.233Z,100548.97
2022-09-01T15:20:50.943Z,100551.16
2022-09-01T15:23:22.366Z,100543.66
2022-09-01T15:25:54.177Z,100543.28
2022-09-01T15:28:26.805Z,100535.41
2022-09-01T15:30:57.236Z,100527.78
2022-09-01T15:33:26.860Z,100536.59
2022-09-01T15:35:56.469Z,100533.38
2022-09-01T15:38:30.332Z,100536.25
2022-09-01T15:41:00.978Z,100531.31
2022-09-01T15:43:33.529Z,100530.78
2022-09-01T15:46:03.398Z,100533.47
2022-09-01T15:48:33.105Z,100519.50
2022-09-01T15:51:26.237Z,100526.25
2022-09-01T15:53:57.591Z,100528.16
2022-09-01T15:56:27.519Z,100526.34
2022-09-01T15:59:01.318Z,100525.53
2022-09-01T16:01:32.477Z,100520.72
2022-09-01T16:04:02.276Z,100523.69
2022-09-01T16:06:31.936Z,100518.19
2022-09-01T16:09:01.607Z,100519.94
2022-09-01T16:11:31.256Z,100518.00
2022-09-01T16:14:03.460Z,100513.53
2022-09-01T16:16:44.809Z,100514.59
2022-09-01T16:19:24.516Z,100514.97
2022-09-01T16:21:57.508Z,100509.09
2022-09-01T16:24:27.196Z,100515.69
2022-09-01T16:26:59.295Z,100502.06
2022-09-01T16:29:36.657Z,100497.25
2022-09-01T16:32:06.401Z,100503.97
2022-09-01T16:34:36.535Z,100499.84
2022-09-01T16:37:09.225Z,100503.84
2022-09-01T16:39:48.068Z,100500.06
2022-09-01T16:42:26.175Z,100505.38
2022-09-01T16:45:06.936Z,100493.56
2022-09-01T16:47:51.577Z,100499.75
2022-09-01T16:50:28.833Z,100500.63
2022-09-01T16:53:14.101Z,100496.88
2022-09-01T16:55:56.073Z,100496.91
2022-09-01T16:58:29.242Z,100489.00
2022-09-01T17:01:09.908Z,100503.22
2022-09-01T17:03:52.299Z,100491.59
2022-09-01T17:06:27.820Z,100498.00
2022-09-01T17:09:07.001Z,100498.16
2022-09-01T17:11:43.279Z,100497.28
2022-09-01T17:14:22.143Z,100494.72
2022-09-01T17:16:56.787Z,100495.84
2022-09-01T17:19:27.460Z,100495.94
2022-09-01T17:22:03.654Z,100495.94
2022-09-01T17:24:39.239Z,100486.09
2022-09-01T17:27:12.669Z,100492.47
2022-09-01T17:29:46.318Z,100490.72
2022-09-01T17:32:30.916Z,100491.69
2022-09-01T17:35:04.535Z,100494.06
2022-09-01T17:37:40.697Z,100489.94
2022-09-01T17:40:16.912Z,100484.78
2022-09-01T17:42:55.084Z,100493.28
2022-09-01T17:45:29.696Z,100491.00
2022-09-01T17:48:09.009Z,100494.22
2022-09-01T17:50:50.155Z,100492.78
2022-09-01T17:53:26.379Z,100496.88
2022-09-01T17:55:59.483Z,100488.47
2022-09-01T17:58:40.715Z,100490.97
2022-09-01T18:01:13.883Z,100489.94
2022-09-01T18:04:13.682Z,100490.88
2022-09-01T18:06:48.871Z,100487.63
2022-09-01T18:09:20.388Z,100491.34
2022-09-01T18:11:52.974Z,100495.06
2022-09-01T18:14:24.992Z,100494.50
2022-09-01T18:17:01.240Z,100496.50
2022-09-01T18:19:39.700Z,100497.53
2022-09-01T18:22:12.291Z,100502.94
2022-09-01T18:24:52.119Z,100503.03
2022-09-01T18:27:24.074Z,100504.25
2022-09-01T18:29:54.466Z,100501.69
2022-09-01T18:32:32.525Z,100506.22
2022-09-01T18:35:31.567Z,100512.56
2022-09-01T18:38:12.586Z,100512.66
2022-09-01T18:40:58.707Z,100510.69
2022-09-01T18:43:33.012Z,100521.25
2022-09-01T18:46:08.100Z,100524.41
2022-09-01T18:48:50.894Z,100530.22
2022-09-01T18:51:26.554Z,100522.16
2022-09-01T18:54:00.271Z,100529.19
2022-09-01T18:56:37.642Z,100532.66
2022-09-01T18:59:15.983Z,100531.66
2022-09-01T19:01:51.783Z,100529.78
2022-09-01T19:04:25.577Z,100528.63
2022-09-01T19:07:07.892Z,100520.06
2022-09-01T19:09:42.576Z,100534.44
2022-09-01T19:12:19.461Z,100534.72
2022-09-01T19:14:57.267Z,100530.63
2022-09-01T19:17:52.813Z,100536.53
2022-09-01T19:20:26.809Z,100545.19
2022-09-01T19:23:04.434Z,100538.25
2022-09-01T19:25:36.950Z,100544.75
2022-09-01T19:28:14.825Z,100542.56
2022-09-01T19:30:48.836Z,100545.13
2022-09-01T19:33:24.427Z,100540.00
2022-09-01T19:35:55.669Z,100544.53
2022-09-01T19:38:31.307Z,100552.66
2022-09-01T19:41:05.112Z,100546.47
2022-09-01T19:43:40.350Z,100546.56
2022-09-01T19:46:18.082Z,100549.50
2022-09-01T19:48:52.101Z,100551.56
2022-09-01T19:51:25.672Z,100548.34
2022-09-01T19:54:02.029Z,100550.44
2022-09-01T19:56:36.283Z,100554.44
2022-09-01T19:59:15.779Z,100547.78
2022-09-01T20:01:49.387Z,100552.03
2022-09-01T20:04:27.879Z,100550.78
2022-09-01T20:07:01.176Z,100554.75
2022-09-01T20:09:38.448Z,100555.22
2022-09-01T20:12:16.373Z,100552.00
2022-09-01T20:14:55.965Z,100555.75
2022-09-01T20:17:30.537Z,100555.88
2022-09-01T20:20:04.423Z,100554.16
2022-09-01T20:22:35.675Z,100557.19
2022-09-01T20:25:11.133Z,100558.50
2022-09-01T20:27:49.511Z,100560.59
2022-09-01T20:30:21.122Z,100559.75
2022-09-01T20:32:56.705Z,100559.00
2022-09-01T20:35:28.650Z,100559.66
2022-09-01T20:38:00.829Z,100560.41
2022-09-01T20:40:35.806Z,100558.72
2022-09-01T20:43:18.507Z,100559.56
2022-09-01T20:45:48.536Z,100556.97
2022-09-01T20:48:25.555Z,100550.13
2022-09-01T20:51:01.383Z,100556.44
2022-09-01T20:53:46.716Z,100557.41
2022-09-01T20:56:25.602Z,100556.44
2022-09-01T20:58:59.895Z,100552.81
2022-09-01T21:01:35.369Z,100553.66
2022-09-01T21:04:08.709Z,100557.19
2022-09-01T21:06:49.005Z,100555.25
2022-09-01T21:09:25.059Z,100560.41
2022-09-01T21:12:01.325Z,100553.03
2022-09-01T21:14:43.664Z,100550.22
2022-09-01T21:17:19.368Z,100556.53
2022-09-01T21:19:57.899Z,100558.50
2022-09-01T21:22:27.624Z,100556.78
2022-09-01T21:24:57.261Z,100555.94
2022-09-01T21:27:33.179Z,100550.34
2022-09-01T21:30:04.349Z,100553.75
2022-09-01T21:32:35.561Z,100558.03
2022-09-01T21:35:05.857Z,100558.69
2022-09-01T21:37:35.532Z,100551.38
2022-09-01T21:40:06.200Z,100553.31
2022-09-01T21:42:41.689Z,100554.41
2022-09-01T21:45:15.350Z,100536.59
2022-09-01T21:47:46.232Z,100545.63
2022-09-01T21:50:17.175Z,100539.63
2022-09-01T21:52:46.857Z,100540.81
2022-09-01T21:55:22.052Z,100541.84
2022-09-01T21:57:55.545Z,100543.81
2022-09-01T22:00:27.058Z,100542.81
2022-09-01T22:02:57.711Z,100536.59
2022-09-01T22:05:27.860Z,100538.53
2022-09-01T22:07:59.003Z,100539.41
2022-09-01T22:10:31.498Z,100533.28
2022-09-01T22:13:05.589Z,100535.00
2022-09-01T22:15:34.972Z,100534.88
2022-09-01T22:18:04.628Z,100532.09
2022-09-01T22:20:35.226Z,100530.19
2022-09-01T22:23:04.854Z,100536.41
2022-09-01T22:25:36.399Z,100529.97
2022-09-01T22:28:09.183Z,100521.94
2022-09-01T22:30:39.174Z,100529.00
2022-09-01T22:33:09.904Z,100527.81
2022-09-01T22:35:43.636Z,100531.34
2022-09-01T22:38:13.777Z,100531.47
2022-09-01T22:40:47.733Z,100536.81
2022-09-01T22:43:19.875Z,100519.03
2022-09-01T22:45:51.071Z,100529.97
2022-09-01T22:48:22.261Z,100521.94
2022-09-01T22:50:53.294Z,100529.25
2022-09-01T22:53:24.129Z,100532.09
2022-09-01T22:55:54.580Z,100521.50
2022-09-01T22:58:26.788Z,100522.38
2022-09-01T23:00:59.462Z,100507.25
2022-09-01T23:03:29.161Z,100525.38
2022-09-01T23:06:06.396Z,100521.72
2022-09-01T23:08:36.389Z,100518.94
2022-09-01T23:11:06.079Z,100510.16
2022-09-01T23:13:39.213Z,100515.00
2022-09-01T23:16:10.691Z,100513.50
2022-09-01T23:18:42.120Z,100512.75
2022-09-01T23:21:12.991Z,100500.41
2022-09-01T23:23:43.079Z,100510.28
2022-09-01T23:26:14.503Z,100504.94
2022-09-01T23:28:47.657Z,100508.47
2022-09-01T23:31:18.756Z,100502.03
2022-09-01T23:33:48.874Z,100511.91
2022-09-01T23:36:20.805Z,100501.06
2022-09-01T23:38:50.889Z,100493.56
2022-09-01T23:41:23.230Z,100501.25
2022-09-01T23:43:56.205Z,100498.44
2022-09-01T23:46:27.831Z,100507.47
2022-09-01T23:48:58.117Z,100497.50
2022-09-01T23:51:29.144Z,100503.59
2022-09-01T23:53:59.161Z,100499.94
2022-09-01T23:56:30.583Z,100493.72
2022-09-01T23:59:03.311Z,100489.22
